Time;durP1;ratioP1;P1;durP2;ratioP2;P2;SDS_P1;SDS_P2;PMS_P1;PMS_P2;Temp;Humidity;BMP_temperature;BMP_pressure;BME280_temperature;BME280_humidity;BME280_pressure;Samples;Min_cycle;Max_cycle;Signal;HPM_P1;HPM_P2
2023/07/07 00:01:54;;;;;;;2.30;2.10;;;18.70;70.30;;;;;;5073439;28;20806;-56
2023/07/07 00:04:22;;;;;;;2.10;1.80;;;18.70;70.70;;;;;;5073491;28;20486;-56
2023/07/07 00:06:48;;;;;;;2.17;1.97;;;18.60;70.60;;;;;;5073399;28;20453;-56
2023/07/07 00:09:16;;;;;;;6.23;2.80;;;18.60;70.90;;;;;;5073492;28;20497;-56
2023/07/07 00:11:43;;;;;;;3.43;2.23;;;18.50;71.00;;;;;;5073544;28;20543;-56
2023/07/07 00:14:10;;;;;;;1.97;1.67;;;18.50;71.50;;;;;;5073641;28;20468;-56
2023/07/07 00:16:38;;;;;;;2.70;2.20;;;18.50;71.30;;;;;;5073353;28;20456;-56
2023/07/07 00:19:09;;;;;;;2.60;1.83;;;18.50;71.50;;;;;;5072963;28;20480;-56
2023/07/07 00:21:36;;;;;;;2.70;2.17;;;18.40;71.50;;;;;;5072860;28;20911;-56
2023/07/07 00:24:03;;;;;;;3.60;2.20;;;18.40;71.80;;;;;;5073060;28;20464;-56
2023/07/07 00:26:32;;;;;;;2.60;2.10;;;18.40;72.10;;;;;;5073131;28;20444;-56
2023/07/07 00:28:59;;;;;;;4.70;2.43;;;18.40;72.30;;;;;;5073919;28;20498;-56
2023/07/07 00:31:26;;;;;;;4.00;2.10;;;18.30;72.20;;;;;;5074598;28;20456;-56
2023/07/07 00:33:54;;;;;;;2.43;1.67;;;18.30;72.30;;;;;;5076693;28;20816;-56
2023/07/07 00:36:22;;;;;;;2.23;1.53;;;18.30;72.70;;;;;;5077136;28;20448;-56
2023/07/07 00:38:50;;;;;;;2.60;2.07;;;18.20;72.60;;;;;;5076940;28;20563;-56
2023/07/07 00:41:17;;;;;;;3.50;2.40;;;18.10;72.60;;;;;;5076421;28;20473;-56
2023/07/07 00:44:00;;;;;;;3.87;2.10;;;18.10;72.60;;;;;;5076807;28;20222;-56
2023/07/07 00:46:26;;;;;;;3.27;2.27;;;18.10;73.70;;;;;;5076795;28;20452;-56
2023/07/07 00:48:55;;;;;;;3.23;1.90;;;18.10;73.40;;;;;;5076596;28;20440;-56
2023/07/07 00:51:26;;;;;;;4.40;2.17;;;18.10;73.50;;;;;;5077491;28;20445;-56
2023/07/07 00:53:56;;;;;;;3.83;1.70;;;18.10;73.80;;;;;;5076734;28;20468;-56
2023/07/07 00:56:28;;;;;;;1.77;1.53;;;18.00;73.90;;;;;;5076208;28;20906;-56
2023/07/07 00:58:59;;;;;;;2.13;1.90;;;18.00;74.00;;;;;;5076409;28;20464;-56
2023/07/07 01:01:26;;;;;;;2.60;1.53;;;18.00;74.10;;;;;;5076395;28;20444;-56
2023/07/07 01:03:58;;;;;;;2.23;2.03;;;18.00;74.10;;;;;;5076248;28;20464;-56
2023/07/07 01:06:30;;;;;;;2.97;2.20;;;17.90;74.00;;;;;;5076284;28;20436;-56
2023/07/07 01:08:59;;;;;;;1.90;1.73;;;17.90;74.30;;;;;;5076347;28;20443;-56
2023/07/07 01:11:27;;;;;;;3.23;2.47;;;17.80;74.00;;;;;;5076289;28;20440;-56
2023/07/07 01:13:54;;;;;;;2.90;2.00;;;17.80;74.20;;;;;;5076078;28;20566;-56
2023/07/07 01:16:27;;;;;;;4.30;2.33;;;17.70;74.10;;;;;;5076095;28;20451;-56
2023/07/07 01:19:05;;;;;;;4.97;2.50;;;17.60;74.20;;;;;;5075891;28;20464;-56
2023/07/07 01:21:42;;;;;;;8.43;2.80;;;17.60;74.10;;;;;;5076094;28;20432;-56
2023/07/07 01:24:39;;;;;;;5.93;3.30;;;17.60;74.30;;;;;;5075954;28;20464;-56
2023/07/07 01:27:26;;;;;;;8.53;4.50;;;17.50;74.30;;;;;;5071434;28;20471;-56
2023/07/07 01:30:11;;;;;;;7.43;3.30;;;17.50;74.40;;;;;;5075857;28;20978;-56
2023/07/07 01:32:40;;;;;;;5.80;3.80;;;17.50;74.60;;;;;;5075516;28;20846;-56
2023/07/07 01:35:12;;;;;;;7.00;3.80;;;17.50;74.70;;;;;;5075749;28;20445;-56
2023/07/07 01:37:39;;;;;;;5.50;3.67;;;17.50;74.90;;;;;;5075933;28;20498;-56
2023/07/07 01:40:07;;;;;;;5.90;3.20;;;17.50;74.90;;;;;;5075759;28;20444;-56
2023/07/07 01:42:40;;;;;;;7.47;3.90;;;17.50;75.10;;;;;;5075414;28;20483;-56
2023/07/07 01:45:14;;;;;;;5.00;2.90;;;17.50;75.40;;;;;;5075427;28;20907;-56
2023/07/07 01:47:47;;;;;;;5.33;3.20;;;17.40;75.30;;;;;;5075696;28;20448;-56
2023/07/07 01:50:21;;;;;;;5.70;3.27;;;17.40;75.40;;;;;;5075625;28;20464;-56
2023/07/07 01:52:52;;;;;;;3.73;2.73;;;17.30;75.40;;;;;;5075664;28;20472;-56
2023/07/07 01:55:23;;;;;;;6.43;3.00;;;17.30;75.40;;;;;;5075204;28;20921;-56
2023/07/07 01:57:54;;;;;;;4.97;3.37;;;17.30;75.70;;;;;;5075444;28;20433;-56
2023/07/07 02:00:22;;;;;;;4.57;3.70;;;17.30;75.90;;;;;;5075138;28;20919;-56
2023/07/07 02:02:52;;;;;;;3.67;2.70;;;17.20;76.30;;;;;;5075758;28;20472;-56
2023/07/07 02:05:19;;;;;;;4.37;3.00;;;17.20;76.20;;;;;;5075233;28;20444;-56
2023/07/07 02:07:46;;;;;;;3.90;2.83;;;17.10;76.20;;;;;;5075202;28;20451;-56
2023/07/07 02:10:12;;;;;;;6.07;3.30;;;17.20;76.40;;;;;;5075085;28;20480;-56
2023/07/07 02:12:39;;;;;;;3.70;2.50;;;17.10;76.50;;;;;;5075029;28;20472;-56
2023/07/07 02:15:07;;;;;;;4.10;2.93;;;17.10;76.60;;;;;;5074967;28;20451;-56
2023/07/07 02:17:34;;;;;;;4.40;2.40;;;17.00;76.60;;;;;;5075049;28;20449;-56
2023/07/07 02:20:03;;;;;;;3.53;3.10;;;17.10;77.10;;;;;;5073899;28;20870;-56
2023/07/07 02:22:30;;;;;;;6.27;3.23;;;17.00;77.20;;;;;;5074141;28;20461;-56
2023/07/07 02:24:56;;;;;;;3.40;2.27;;;17.00;77.50;;;;;;5073851;28;20441;-56
2023/07/07 02:27:23;;;;;;;3.17;2.83;;;17.00;77.80;;;;;;5073791;28;20452;-56
2023/07/07 02:29:50;;;;;;;5.90;3.00;;;17.00;77.90;;;;;;5073725;28;20889;-56
2023/07/07 02:32:16;;;;;;;4.50;2.90;;;17.00;77.80;;;;;;5073717;28;20472;-56
2023/07/07 02:34:47;;;;;;;5.87;3.33;;;16.90;77.90;;;;;;5073719;28;20452;-56
2023/07/07 02:37:15;;;;;;;3.33;2.70;;;16.90;78.20;;;;;;5073699;28;20814;-56
2023/07/07 02:39:42;;;;;;;4.70;2.90;;;16.90;78.00;;;;;;5073628;28;20455;-56
2023/07/07 02:42:08;;;;;;;7.03;2.70;;;16.90;78.30;;;;;;5073240;28;20468;-56
2023/07/07 02:44:35;;;;;;;4.50;2.77;;;16.90;78.30;;;;;;5073559;28;20799;-56
2023/07/07 02:47:02;;;;;;;3.80;3.20;;;16.90;78.40;;;;;;5073631;28;20459;-56
2023/07/07 02:49:29;;;;;;;3.80;2.50;;;16.80;78.50;;;;;;5073426;28;20546;-56
2023/07/07 02:51:56;;;;;;;2.97;2.37;;;16.80;78.70;;;;;;5073414;28;20452;-56
2023/07/07 02:54:24;;;;;;;2.80;2.40;;;16.80;78.60;;;;;;5072465;28;20940;-56
2023/07/07 02:56:50;;;;;;;6.43;2.40;;;16.70;78.70;;;;;;5073964;28;20449;-56
2023/07/07 02:59:17;;;;;;;3.10;2.60;;;16.70;78.90;;;;;;5073366;28;20447;-56
2023/07/07 03:01:44;;;;;;;3.43;2.77;;;16.70;79.20;;;;;;5073321;28;21012;-56
2023/07/07 03:04:11;;;;;;;3.83;2.87;;;16.70;79.60;;;;;;5073302;28;20552;-56
2023/07/07 03:06:38;;;;;;;4.97;2.93;;;16.70;79.80;;;;;;5073359;28;20456;-56
2023/07/07 03:09:05;;;;;;;3.80;2.77;;;16.70;79.90;;;;;;5073783;28;20567;-56
2023/07/07 03:11:34;;;;;;;3.20;2.53;;;16.70;79.80;;;;;;5073644;28;20448;-56
2023/07/07 03:14:01;;;;;;;3.23;2.60;;;16.70;80.10;;;;;;5073477;28;21005;-56
2023/07/07 03:16:30;;;;;;;3.57;2.53;;;16.70;80.30;;;;;;5073299;28;20993;-56
2023/07/07 03:18:58;;;;;;;3.83;2.57;;;16.70;80.60;;;;;;5037368;28;1022386;-56
2023/07/07 03:21:25;;;;;;;4.90;3.10;;;16.70;80.80;;;;;;5073883;28;20476;-56
2023/07/07 03:23:53;;;;;;;4.00;3.10;;;16.70;80.90;;;;;;5074711;28;20500;-56
2023/07/07 03:26:21;;;;;;;5.33;2.90;;;16.70;81.00;;;;;;5073857;28;20452;-56
2023/07/07 03:28:50;;;;;;;3.60;3.03;;;16.70;81.30;;;;;;5073603;28;20448;-56
2023/07/07 03:31:22;;;;;;;2.70;2.50;;;16.70;81.50;;;;;;5073847;28;20452;-56
2023/07/07 03:33:51;;;;;;;4.50;2.80;;;16.70;81.40;;;;;;5074453;28;20555;-56
2023/07/07 03:36:20;;;;;;;4.20;3.00;;;16.70;81.50;;;;;;5073430;28;20818;-56
2023/07/07 03:38:46;;;;;;;4.53;2.73;;;16.70;81.50;;;;;;5073597;28;20493;-56
2023/07/07 03:41:18;;;;;;;4.63;2.70;;;16.70;81.50;;;;;;5073521;28;20449;-56
2023/07/07 03:43:45;;;;;;;4.60;2.90;;;16.60;81.30;;;;;;5073386;28;20464;-56
2023/07/07 03:46:14;;;;;;;6.53;3.27;;;16.60;81.30;;;;;;5074345;28;20863;-56
2023/07/07 03:48:40;;;;;;;5.63;2.70;;;16.60;81.40;;;;;;5073430;28;20514;-56
2023/07/07 03:51:07;;;;;;;7.30;2.60;;;16.60;81.60;;;;;;5073413;28;20449;-56
2023/07/07 03:53:34;;;;;;;4.50;2.93;;;16.60;81.60;;;;;;5073286;28;20512;-56
2023/07/07 03:56:01;;;;;;;5.00;3.10;;;16.60;81.80;;;;;;5073366;28;20453;-56
2023/07/07 03:58:28;;;;;;;4.17;2.60;;;16.60;81.70;;;;;;5073439;28;20457;-56
2023/07/07 04:01:00;;;;;;;4.53;2.83;;;16.60;82.00;;;;;;5073357;28;20445;-56
2023/07/07 04:03:28;;;;;;;3.90;2.87;;;16.50;82.10;;;;;;5073329;28;20471;-56
2023/07/07 04:05:56;;;;;;;5.07;2.53;;;16.50;82.50;;;;;;5072023;28;20452;-56
2023/07/07 04:08:23;;;;;;;6.87;2.80;;;16.60;83.60;;;;;;5072991;28;20969;-56
2023/07/07 04:11:00;;;;;;;2.93;2.30;;;16.60;83.30;;;;;;5072844;28;20872;-56
2023/07/07 04:13:27;;;;;;;5.00;3.70;;;16.60;83.40;;;;;;5073140;28;20909;-56
2023/07/07 04:16:01;;;;;;;3.53;3.13;;;16.60;83.20;;;;;;5073409;28;20456;-56
2023/07/07 04:18:31;;;;;;;4.73;3.27;;;16.60;83.30;;;;;;5073109;28;20537;-56
2023/07/07 04:20:59;;;;;;;6.90;2.90;;;16.60;84.30;;;;;;5073140;28;20484;-56
2023/07/07 04:23:25;;;;;;;5.10;2.70;;;16.60;83.60;;;;;;5073206;28;20808;-56
2023/07/07 04:25:52;;;;;;;6.37;3.13;;;16.60;84.60;;;;;;5073136;28;20445;-56
2023/07/07 04:28:19;;;;;;;7.13;2.90;;;16.60;84.10;;;;;;5073124;28;20452;-56
2023/07/07 04:30:50;;;;;;;5.43;3.30;;;16.60;84.30;;;;;;5073004;28;20535;-56
2023/07/07 04:33:16;;;;;;;3.67;3.00;;;16.60;84.50;;;;;;5073106;28;20522;-56
2023/07/07 04:35:44;;;;;;;5.70;2.80;;;16.60;84.70;;;;;;5072968;28;20478;-56
2023/07/07 04:38:11;;;;;;;7.30;3.10;;;16.60;84.90;;;;;;5073215;28;20448;-56
2023/07/07 04:40:38;;;;;;;3.40;2.57;;;16.70;85.30;;;;;;5072652;28;20966;-56
2023/07/07 04:43:04;;;;;;;3.23;2.90;;;16.70;85.30;;;;;;5073323;28;20530;-56
2023/07/07 04:45:34;;;;;;;9.07;3.83;;;16.70;85.30;;;;;;5072613;28;20939;-56
2023/07/07 04:48:00;;;;;;;6.43;3.87;;;16.80;85.60;;;;;;5072713;28;20861;-56
2023/07/07 04:50:27;;;;;;;6.03;4.00;;;16.80;85.60;;;;;;5072594;28;20513;-56
2023/07/07 04:52:55;;;;;;;7.20;3.50;;;16.80;86.00;;;;;;5072869;28;20496;-56
2023/07/07 04:55:22;;;;;;;5.93;3.33;;;16.80;86.40;;;;;;5073007;28;20527;-56
2023/07/07 04:57:49;;;;;;;5.87;3.70;;;16.80;86.70;;;;;;5072630;28;20857;-56
2023/07/07 05:00:16;;;;;;;10.30;3.83;;;16.90;87.00;;;;;;5072824;28;20444;-56
2023/07/07 05:02:43;;;;;;;4.93;4.03;;;16.90;87.10;;;;;;5073181;28;20483;-56
2023/07/07 05:05:10;;;;;;;5.07;3.80;;;17.00;87.30;;;;;;5072730;28;20448;-56
2023/07/07 05:07:36;;;;;;;6.90;4.50;;;17.00;87.50;;;;;;5072784;28;20457;-56
2023/07/07 05:10:05;;;;;;;10.17;3.90;;;17.10;87.50;;;;;;5072913;28;20491;-56
2023/07/07 05:12:32;;;;;;;9.83;4.73;;;17.20;86.90;;;;;;5072859;28;20479;-56
2023/07/07 05:14:59;;;;;;;9.90;3.97;;;17.20;86.70;;;;;;5072658;28;20444;-56
2023/07/07 05:17:26;;;;;;;7.40;3.63;;;17.30;86.80;;;;;;5073640;28;20803;-56
2023/07/07 05:19:52;;;;;;;7.30;4.27;;;17.40;86.80;;;;;;5075776;28;20506;-56
2023/07/07 05:22:20;;;;;;;11.20;6.77;;;17.50;87.00;;;;;;5075670;28;21004;-56
2023/07/07 05:24:47;;;;;;;12.10;7.90;;;17.60;85.80;;;;;;5076048;28;20449;-56
2023/07/07 05:27:15;;;;;;;13.50;9.00;;;17.60;85.10;;;;;;5076030;28;20478;-56
2023/07/07 05:29:42;;;;;;;12.07;9.73;;;17.70;84.60;;;;;;5075979;28;20472;-56
2023/07/07 05:32:09;;;;;;;14.93;10.27;;;17.80;84.40;;;;;;5075925;28;20471;-56
2023/07/07 05:34:35;;;;;;;11.20;9.10;;;17.80;85.20;;;;;;5075528;28;20440;-56
2023/07/07 05:37:02;;;;;;;11.43;9.20;;;17.90;83.80;;;;;;5075601;28;20942;-56
2023/07/07 05:39:29;;;;;;;7.50;5.93;;;18.00;83.80;;;;;;5090195;28;20490;-56
2023/07/07 05:41:56;;;;;;;8.27;5.43;;;18.10;83.90;;;;;;5095909;28;20522;-56
2023/07/07 05:44:24;;;;;;;14.20;6.27;;;18.10;83.20;;;;;;5095680;28;20512;-56
2023/07/07 05:46:50;;;;;;;11.67;4.90;;;18.20;83.80;;;;;;5095884;28;20451;-56
2023/07/07 05:49:17;;;;;;;7.73;4.97;;;18.30;82.60;;;;;;5095811;28;20451;-56
2023/07/07 05:51:44;;;;;;;8.50;4.47;;;18.30;82.40;;;;;;5095854;28;20976;-56
2023/07/07 05:54:10;;;;;;;7.57;5.20;;;18.40;82.20;;;;;;5095827;28;20459;-56
2023/07/07 05:56:37;;;;;;;13.40;4.30;;;18.50;82.20;;;;;;5095713;28;20444;-56
2023/07/07 05:59:04;;;;;;;6.77;4.77;;;18.60;81.90;;;;;;5095578;28;20444;-56
2023/07/07 06:01:33;;;;;;;8.67;4.67;;;18.70;81.30;;;;;;5095696;28;20825;-56
2023/07/07 06:04:00;;;;;;;7.70;4.70;;;18.80;80.90;;;;;;5095486;28;20503;-56
2023/07/07 06:06:26;;;;;;;11.73;6.03;;;18.90;80.90;;;;;;5095525;28;20450;-56
2023/07/07 06:08:53;;;;;;;12.70;5.13;;;19.00;80.80;;;;;;5096361;28;20436;-56
2023/07/07 06:11:20;;;;;;;8.97;4.70;;;19.10;80.70;;;;;;5095504;28;20488;-56
2023/07/07 06:13:46;;;;;;;9.60;4.90;;;19.20;80.20;;;;;;5095051;28;20468;-56
2023/07/07 06:16:13;;;;;;;10.53;4.83;;;19.30;80.40;;;;;;5095692;28;20466;-56
2023/07/07 06:18:41;;;;;;;6.90;4.43;;;19.50;80.80;;;;;;5096071;28;20455;-56
2023/07/07 06:21:08;;;;;;;7.67;4.47;;;19.50;80.60;;;;;;5096731;28;20436;-56
2023/07/07 06:23:35;;;;;;;7.10;4.27;;;19.60;79.40;;;;;;5095597;28;20558;-56
2023/07/07 06:26:02;;;;;;;7.47;4.87;;;19.70;78.60;;;;;;5095870;28;20450;-56
2023/07/07 06:28:29;;;;;;;4.70;4.03;;;19.90;78.10;;;;;;5094459;28;20830;-56
2023/07/07 06:30:55;;;;;;;6.70;4.20;;;20.00;77.80;;;;;;5095091;28;20476;-56
2023/07/07 06:33:23;;;;;;;5.70;4.03;;;20.10;77.60;;;;;;5094818;28;20463;-56
2023/07/07 06:35:51;;;;;;;9.10;3.90;;;20.20;76.70;;;;;;5095245;28;20451;-56
2023/07/07 06:38:18;;;;;;;5.83;3.90;;;20.40;76.30;;;;;;5094971;28;20447;-56
2023/07/07 06:40:46;;;;;;;3.10;2.80;;;20.50;76.00;;;;;;5094939;28;20898;-56
2023/07/07 06:43:17;;;;;;;6.40;3.97;;;20.70;75.40;;;;;;5094829;28;20808;-56
2023/07/07 06:45:45;;;;;;;4.57;2.87;;;20.80;74.30;;;;;;5094837;28;20481;-56
2023/07/07 06:48:11;;;;;;;8.23;3.80;;;21.00;73.10;;;;;;5094661;28;20459;-56
2023/07/07 06:50:40;;;;;;;6.13;3.70;;;21.10;71.90;;;;;;5094560;28;20478;-56
2023/07/07 06:53:10;;;;;;;6.73;3.40;;;21.30;70.50;;;;;;5094571;28;20468;-56
2023/07/07 06:55:37;;;;;;;5.10;3.03;;;21.40;69.60;;;;;;5094617;28;20452;-56
2023/07/07 06:58:03;;;;;;;3.67;2.90;;;21.60;68.90;;;;;;5094644;28;20450;-56
2023/07/07 07:00:31;;;;;;;4.27;2.70;;;21.80;68.20;;;;;;5094159;28;21002;-56
2023/07/07 07:02:58;;;;;;;4.70;3.03;;;22.00;67.20;;;;;;5094509;28;20521;-56
2023/07/07 07:05:24;;;;;;;4.73;2.90;;;22.20;66.80;;;;;;5094510;28;20452;-56
2023/07/07 07:07:51;;;;;;;4.23;2.80;;;22.40;65.90;;;;;;5094362;28;20454;-56
2023/07/07 07:10:19;;;;;;;3.57;2.90;;;22.60;63.50;;;;;;5094257;28;20472;-56
2023/07/07 07:12:47;;;;;;;3.20;2.70;;;22.80;63.10;;;;;;5094632;28;20471;-57
2023/07/07 07:15:14;;;;;;;2.83;2.33;;;22.90;62.20;;;;;;5094528;28;20482;-56
2023/07/07 07:17:40;;;;;;;4.67;2.60;;;23.20;61.90;;;;;;5094074;28;20859;-57
2023/07/07 07:20:09;;;;;;;2.63;2.10;;;23.40;61.80;;;;;;5093797;28;20949;-54
2023/07/07 07:22:36;;;;;;;4.17;2.60;;;23.60;60.90;;;;;;5093701;28;21012;-55
2023/07/07 07:25:03;;;;;;;4.03;2.50;;;23.80;59.60;;;;;;5093981;28;20439;-55
2023/07/07 07:27:31;;;;;;;5.70;3.17;;;24.00;58.30;;;;;;5093965;28;20452;-55
2023/07/07 07:29:57;;;;;;;4.47;2.40;;;24.20;57.60;;;;;;5093933;28;20455;-55
2023/07/07 07:32:24;;;;;;;6.03;2.50;;;24.40;57.20;;;;;;5093975;28;20485;-55
2023/07/07 07:34:51;;;;;;;2.53;2.33;;;24.60;57.00;;;;;;5094268;28;20440;-55
2023/07/07 07:37:18;;;;;;;4.50;2.30;;;24.80;56.60;;;;;;5093912;28;20500;-55
2023/07/07 07:39:44;;;;;;;7.23;2.43;;;25.00;56.00;;;;;;5093789;28;20500;-55
2023/07/07 07:42:11;;;;;;;6.97;2.70;;;25.20;55.70;;;;;;5094502;28;20459;-55
2023/07/07 07:44:39;;;;;;;3.90;2.70;;;25.40;55.20;;;;;;5094183;28;20452;-55
2023/07/07 07:47:06;;;;;;;5.93;2.83;;;25.70;53.50;;;;;;5094226;28;20451;-55
2023/07/07 07:49:33;;;;;;;3.57;2.63;;;25.80;52.90;;;;;;5093635;28;20447;-56
2023/07/07 07:52:00;;;;;;;3.60;2.13;;;26.00;53.10;;;;;;5093548;28;20491;-56
2023/07/07 07:54:27;;;;;;;4.37;2.67;;;26.20;52.80;;;;;;5094132;28;20448;-56
2023/07/07 07:56:54;;;;;;;6.70;2.20;;;26.40;51.80;;;;;;5093948;28;20451;-56
2023/07/07 07:59:21;;;;;;;3.67;1.90;;;26.70;51.00;;;;;;5094063;28;20450;-57
2023/07/07 08:01:49;;;;;;;4.10;2.30;;;26.90;50.00;;;;;;5094165;28;20443;-56
2023/07/07 08:04:15;;;;;;;2.90;2.60;;;27.10;49.30;;;;;;5093993;28;20991;-56
2023/07/07 08:06:42;;;;;;;3.50;2.90;;;27.30;48.00;;;;;;5093678;28;20454;-56
2023/07/07 08:09:11;;;;;;;4.17;2.10;;;27.60;47.40;;;;;;5093835;28;20542;-56
2023/07/07 08:12:00;;;;;;;3.20;2.30;;;27.80;46.60;;;;;;5093350;28;20483;-56
2023/07/07 08:14:31;;;;;;;3.80;2.10;;;28.10;46.70;;;;;;5093514;28;20431;-56
2023/07/07 08:17:02;;;;;;;2.93;1.90;;;28.20;43.30;;;;;;5093257;28;20432;-56
2023/07/07 08:19:30;;;;;;;2.87;1.87;;;28.40;43.10;;;;;;5092937;28;20467;-56
2023/07/07 08:21:58;;;;;;;3.33;2.20;;;28.50;43.30;;;;;;5093330;28;20478;-56
2023/07/07 08:24:26;;;;;;;3.70;2.10;;;28.70;41.90;;;;;;5093333;28;20817;-56
2023/07/07 08:26:53;;;;;;;4.63;2.13;;;28.80;41.30;;;;;;5093321;28;20501;-56
2023/07/07 08:29:20;;;;;;;3.03;2.40;;;29.00;40.90;;;;;;5093555;28;20439;-56
2023/07/07 08:31:47;;;;;;;2.10;1.90;;;29.20;41.20;;;;;;5093383;28;20906;-54
2023/07/07 08:34:16;;;;;;;4.20;2.30;;;29.30;40.20;;;;;;5093592;28;20451;-55
2023/07/07 08:36:43;;;;;;;2.03;1.83;;;29.50;40.10;;;;;;5093164;28;20450;-55
2023/07/07 08:39:13;;;;;;;2.43;2.00;;;29.70;40.50;;;;;;5093141;28;20443;-55
2023/07/07 08:41:45;;;;;;;4.07;2.37;;;29.90;38.80;;;;;;5093178;28;20444;-55
2023/07/07 08:44:15;;;;;;;2.17;1.90;;;30.10;36.80;;;;;;5092804;28;20838;-55
2023/07/07 08:46:55;;;;;;;3.03;2.77;;;30.20;36.60;;;;;;5093218;28;20438;-55
2023/07/07 08:49:29;;;;;;;2.40;1.80;;;30.40;37.00;;;;;;5093059;28;20419;-55
2023/07/07 08:52:02;;;;;;;4.67;2.20;;;30.50;38.40;;;;;;5093598;28;20466;-55
2023/07/07 08:54:35;;;;;;;6.63;3.00;;;30.70;37.80;;;;;;5096966;28;20438;-55
2023/07/07 08:57:08;;;;;;;3.80;2.30;;;30.90;37.30;;;;;;5096639;28;20793;-55
2023/07/07 08:59:44;;;;;;;3.00;2.00;;;31.00;36.90;;;;;;5096948;28;20432;-55
2023/07/07 09:02:27;;;;;;;4.73;2.00;;;31.20;37.50;;;;;;5096854;28;20466;-55
2023/07/07 09:05:05;;;;;;;2.83;1.90;;;31.50;37.70;;;;;;5097161;28;20431;-55
2023/07/07 09:07:47;;;;;;;2.27;1.80;;;31.70;37.10;;;;;;5096755;28;20785;-55
2023/07/07 09:10:34;;;;;;;3.23;2.80;;;31.90;36.30;;;;;;5097206;28;20436;-55
2023/07/07 09:13:07;;;;;;;2.50;2.30;;;32.10;36.70;;;;;;5096274;28;20462;-55
2023/07/07 09:15:38;;;;;;;3.77;1.90;;;32.30;36.30;;;;;;5096670;28;20431;-55
2023/07/07 09:18:14;;;;;;;4.97;2.17;;;32.40;35.70;;;;;;5096478;28;20434;-55
2023/07/07 09:20:43;;;;;;;4.10;2.40;;;32.60;35.10;;;;;;5096216;28;20900;-55
2023/07/07 09:23:15;;;;;;;5.10;2.23;;;32.80;34.30;;;;;;5096310;28;20463;-55
2023/07/07 09:25:45;;;;;;;3.00;2.70;;;33.00;33.30;;;;;;5096448;28;20432;-55
2023/07/07 09:28:15;;;;;;;3.10;2.30;;;33.20;32.40;;;;;;5096462;28;20423;-55
2023/07/07 09:30:46;;;;;;;2.53;2.33;;;33.30;32.30;;;;;;5097098;28;20454;-55
2023/07/07 09:33:15;;;;;;;3.30;2.23;;;33.50;32.20;;;;;;5098177;28;20799;-55
2023/07/07 09:35:58;;;;;;;4.77;2.40;;;33.60;29.00;;;;;;5096540;28;20458;-55
2023/07/07 09:38:39;;;;;;;3.00;2.27;;;33.70;28.50;;;;;;5096707;28;20435;-55
2023/07/07 09:41:14;;;;;;;2.00;1.80;;;33.70;27.70;;;;;;5096343;28;20869;-55
2023/07/07 09:43:52;;;;;;;2.50;1.90;;;33.90;29.50;;;;;;5096213;28;20466;-55
2023/07/07 09:46:28;;;;;;;5.07;2.60;;;34.10;29.60;;;;;;5096120;28;20787;-55
2023/07/07 09:49:02;;;;;;;3.10;2.30;;;34.30;29.30;;;;;;5096039;28;20435;-55
2023/07/07 09:51:41;;;;;;;4.13;2.20;;;34.60;29.80;;;;;;5096005;28;20463;-55
2023/07/07 09:54:10;;;;;;;3.40;2.00;;;34.90;28.40;;;;;;5095914;28;20829;-55
2023/07/07 09:56:42;;;;;;;2.80;2.47;;;35.30;28.40;;;;;;5095507;28;20957;-55
2023/07/07 09:59:15;;;;;;;2.97;2.20;;;35.50;27.50;;;;;;5095913;28;20186;-55
2023/07/07 10:01:46;;;;;;;3.83;2.30;;;35.70;26.70;;;;;;5095548;28;20552;-55
2023/07/07 10:04:15;;;;;;;2.53;2.33;;;35.90;26.40;;;;;;5095546;28;20224;-55
2023/07/07 10:06:52;;;;;;;3.00;2.13;;;36.10;27.00;;;;;;5095627;28;20204;-55
2023/07/07 10:09:19;;;;;;;5.73;2.27;;;36.50;27.40;;;;;;5095672;28;20185;-55
2023/07/07 10:11:46;;;;;;;1.97;1.87;;;36.80;26.30;;;;;;5095309;28;20585;-55
2023/07/07 10:14:15;;;;;;;2.40;2.03;;;37.10;24.60;;;;;;5095477;28;20228;-55
2023/07/07 10:16:57;;;;;;;9.00;2.72;;;37.50;24.50;;;;;;5095739;28;20197;-55
2023/07/07 10:19:25;;;;;;;3.67;2.30;;;37.90;24.60;;;;;;5095162;28;20213;-56
2023/07/07 10:21:53;;;;;;;5.60;2.90;;;38.20;21.40;;;;;;5094955;28;20603;-56
2023/07/07 10:24:20;;;;;;;2.55;2.35;;;38.20;20.60;;;;;;5095326;28;20209;-56
2023/07/07 10:26:48;;;;;;;3.97;2.65;;;38.20;21.90;;;;;;5095163;28;20232;-56
2023/07/07 10:29:17;;;;;;;2.63;2.30;;;38.50;22.40;;;;;;5095287;28;20201;-55
2023/07/07 10:31:47;;;;;;;4.45;2.58;;;38.80;19.80;;;;;;5095018;28;20225;-56
2023/07/07 10:34:23;;;;;;;3.15;2.78;;;39.10;20.50;;;;;;5095542;28;20258;-56
2023/07/07 10:36:55;;;;;;;4.90;3.35;;;39.50;21.00;;;;;;5095124;28;20189;-56
2023/07/07 10:39:24;;;;;;;3.47;3.15;;;39.90;20.80;;;;;;5095105;28;20212;-56
2023/07/07 10:41:50;;;;;;;3.35;3.05;;;40.10;17.80;;;;;;5094865;28;20220;-56
2023/07/07 10:44:17;;;;;;;2.85;2.50;;;40.30;18.90;;;;;;5094813;28;20201;-56
2023/07/07 10:46:44;;;;;;;4.78;3.60;;;40.70;19.20;;;;;;5095694;28;20212;-56
2023/07/07 10:49:16;;;;;;;3.53;2.83;;;41.30;18.30;;;;;;5094828;28;20212;-56
2023/07/07 10:51:53;;;;;;;2.88;2.67;;;41.70;16.40;;;;;;5094659;28;20246;-56
2023/07/07 10:54:28;;;;;;;3.08;2.88;;;42.00;17.20;;;;;;5094453;28;20650;-56
2023/07/07 10:57:07;;;;;;;3.63;2.88;;;42.50;16.80;;;;;;5094832;28;20185;-56
2023/07/07 10:59:50;;;;;;;3.65;2.90;;;43.00;15.30;;;;;;5094367;28;20647;-56
2023/07/07 11:02:59;;;;;;;4.93;3.08;;;43.40;15.50;;;;;;5094617;28;20274;-56
2023/07/07 11:05:36;;;;;;;3.28;2.97;;;44.00;16.00;;;;;;5094645;28;20566;-55
2023/07/07 11:08:17;;;;;;;3.30;2.78;;;44.30;14.20;;;;;;5094461;28;20189;-56
2023/07/07 11:11:22;;;;;;;4.63;3.13;;;44.50;13.50;;;;;;5094208;28;20651;-55
2023/07/07 11:14:05;;;;;;;3.35;2.92;;;44.90;13.30;;;;;;5083475;28;20266;-56
2023/07/07 11:16:40;;;;;;;2.20;2.08;;;44.80;13.50;;;;;;5093881;28;20188;-56
2023/07/07 11:19:21;;;;;;;2.58;2.38;;;45.10;14.10;;;;;;5094102;28;20208;-56
2023/07/07 11:22:00;;;;;;;2.70;2.50;;;45.60;12.90;;;;;;5094422;28;20228;-56
2023/07/07 11:24:32;;;;;;;2.60;2.40;;;45.70;12.00;;;;;;5095100;28;20201;-56
2023/07/07 11:27:23;;;;;;;2.22;2.03;;;45.90;13.00;;;;;;5093998;28;20230;-56
2023/07/07 11:29:57;;;;;;;2.88;2.63;;;46.20;14.50;;;;;;5094193;28;20189;-56
2023/07/07 11:32:34;;;;;;;3.40;2.72;;;46.60;13.50;;;;;;5094015;28;20213;-56
2023/07/07 11:35:22;;;;;;;3.03;2.78;;;47.00;13.40;;;;;;5094101;28;20288;-56
2023/07/07 11:38:28;;;;;;;2.80;2.60;;;47.40;13.70;;;;;;5094022;28;20185;-56
2023/07/07 11:40:59;;;;;;;5.78;2.85;;;47.90;12.30;;;;;;5094801;28;20185;-56
2023/07/07 11:43:44;;;;;;;3.15;2.80;;;48.20;10.90;;;;;;5093960;28;20251;-56
2023/07/07 11:46:36;;;;;;;3.78;2.70;;;48.40;12.10;;;;;;5093597;28;20196;-56
2023/07/07 11:49:15;;;;;;;3.03;2.15;;;48.70;11.90;;;;;;5094338;28;20189;-56
2023/07/07 11:51:52;;;;;;;2.53;2.33;;;48.70;10.30;;;;;;5093681;28;20189;-57
2023/07/07 11:54:33;;;;;;;3.75;2.30;;;48.70;11.50;;;;;;5093901;28;20193;-56
2023/07/07 11:57:22;;;;;;;3.78;2.40;;;48.80;11.30;;;;;;5093817;28;20284;-56
2023/07/07 12:00:10;;;;;;;2.60;2.40;;;49.10;10.70;;;;;;5093793;28;20190;-57
2023/07/07 12:02:45;;;;;;;2.95;2.60;;;49.30;11.80;;;;;;5093587;28;20225;-56
2023/07/07 12:05:19;;;;;;;2.80;2.60;;;49.60;12.30;;;;;;5093542;28;20635;-56
2023/07/07 12:07:52;;;;;;;2.55;1.88;;;49.80;11.90;;;;;;5093897;28;20283;-56
2023/07/07 12:10:22;;;;;;;2.25;2.05;;;50.00;10.50;;;;;;5093535;28;20715;-56
2023/07/07 12:12:55;;;;;;;2.92;2.70;;;50.10;11.40;;;;;;5093950;28;20213;-56
2023/07/07 12:15:26;;;;;;;3.60;2.30;;;50.00;9.20;;;;;;5094225;28;20190;-56
2023/07/07 12:18:02;;;;;;;4.65;2.72;;;49.70;9.60;;;;;;5093435;28;20185;-56
2023/07/07 12:20:33;;;;;;;2.38;1.92;;;49.60;10.30;;;;;;5094082;28;20188;-57
2023/07/07 12:23:04;;;;;;;3.25;2.42;;;49.60;10.60;;;;;;5092955;28;20729;-56
2023/07/07 12:25:32;;;;;;;2.05;1.92;;;49.80;10.70;;;;;;5093393;28;20185;-57
2023/07/07 12:27:59;;;;;;;2.90;2.70;;;50.00;9.30;;;;;;5095438;28;20205;-57
2023/07/07 12:30:30;;;;;;;3.67;2.22;;;50.20;8.60;;;;;;5097527;28;20200;-57
2023/07/07 12:32:59;;;;;;;2.75;2.55;;;50.30;9.10;;;;;;5097284;28;20303;-57
2023/07/07 12:35:28;;;;;;;2.30;2.03;;;50.50;10.60;;;;;;5097339;28;20201;-57
2023/07/07 12:37:56;;;;;;;2.63;2.42;;;50.90;11.90;;;;;;5097371;28;20208;-57
2023/07/07 12:40:24;;;;;;;3.20;2.28;;;51.30;11.40;;;;;;5097478;28;20240;-56
2023/07/07 12:42:59;;;;;;;3.25;2.50;;;51.70;10.80;;;;;;5097259;28;20221;-58
2023/07/07 12:45:30;;;;;;;2.95;2.65;;;52.00;8.60;;;;;;5097756;28;20189;-56
2023/07/07 12:48:02;;;;;;;4.15;2.53;;;51.90;8.10;;;;;;5097594;28;20720;-57
2023/07/07 12:50:31;;;;;;;3.47;3.13;;;51.70;8.30;;;;;;5097205;28;20186;-57
2023/07/07 12:53:03;;;;;;;2.42;2.17;;;51.70;9.60;;;;;;5097007;28;20213;-57
2023/07/07 12:55:31;;;;;;;3.55;2.58;;;51.90;10.10;;;;;;5097089;28;20201;-56
2023/07/07 12:58:18;;;;;;;2.85;2.42;;;52.20;9.80;;;;;;5097711;28;20201;-57
2023/07/07 13:00:45;;;;;;;2.80;2.60;;;52.60;9.80;;;;;;5097171;28;20193;-57
2023/07/07 13:03:20;;;;;;;3.50;2.92;;;52.90;9.80;;;;;;5096741;28;20225;-57